createdAt,value
2023-04-22T00:00:14.496Z,97355.97
2023-04-22T00:02:44.014Z,97361.56
2023-04-22T00:05:15.169Z,97364.53
2023-04-22T00:07:45.755Z,97367.16
2023-04-22T00:10:14.347Z,97367.16
2023-04-22T00:12:44.090Z,97354.91
2023-04-22T00:15:13.152Z,97348.41
2023-04-22T00:17:42.942Z,97356.44
2023-04-22T00:20:12.773Z,97354.53
2023-04-22T00:22:41.111Z,97352.66
2023-04-22T00:25:10.374Z,97348.00
2023-04-22T00:27:38.669Z,97351.69
2023-04-22T00:30:09.633Z,97341.34
2023-04-22T00:32:38.367Z,97349.19
2023-04-22T00:35:07.647Z,97341.69
2023-04-22T00:37:36.136Z,97344.56
2023-04-22T00:40:04.992Z,97346.41
2023-04-22T00:42:33.840Z,97340.59
2023-04-22T00:45:02.878Z,97335.72
2023-04-22T00:47:33.515Z,97328.81
2023-04-22T00:50:02.189Z,97325.25
2023-04-22T00:52:30.555Z,97333.09
2023-04-22T00:54:58.853Z,97326.75
2023-04-22T00:57:28.418Z,97334.16
2023-04-22T00:59:56.871Z,97342.06
2023-04-22T01:02:26.153Z,97333.81
2023-04-22T01:04:56.083Z,97341.03
2023-04-22T01:07:25.171Z,97339.63
2023-04-22T01:09:53.785Z,97325.00
2023-04-22T01:12:22.320Z,97337.97
2023-04-22T01:14:51.600Z,97341.53
2023-04-22T01:17:22.228Z,97334.06
2023-04-22T01:19:50.700Z,97334.84
2023-04-22T01:22:20.581Z,97329.41
2023-04-22T01:24:50.680Z,97339.69
2023-04-22T01:27:19.503Z,97340.69
2023-04-22T01:29:48.729Z,97338.91
2023-04-22T01:32:17.175Z,97329.28
2023-04-22T01:34:45.713Z,97338.03
2023-04-22T01:37:14.105Z,97347.88
2023-04-22T01:39:42.814Z,97340.19
2023-04-22T01:42:13.066Z,97334.38
2023-04-22T01:44:41.466Z,97327.56
2023-04-22T01:47:10.126Z,97345.06
2023-04-22T01:49:38.664Z,97339.13
2023-04-22T01:52:07.212Z,97337.47
2023-04-22T01:54:35.597Z,97337.38
2023-04-22T01:57:10.159Z,97330.16
2023-04-22T01:59:39.999Z,97344.03
2023-04-22T02:02:08.591Z,97333.81
2023-04-22T02:04:37.184Z,97340.78
2023-04-22T02:07:05.527Z,97339.00
2023-04-22T02:09:36.719Z,97325.84
2023-04-22T02:12:05.697Z,97332.75
2023-04-22T02:14:33.888Z,97335.72
2023-04-22T02:17:06.310Z,97333.84
2023-04-22T02:19:34.929Z,97325.28
2023-04-22T02:22:03.231Z,97320.88
2023-04-22T02:24:31.623Z,97325.97
2023-04-22T02:27:00.467Z,97326.94
2023-04-22T02:29:29.643Z,97323.06
2023-04-22T02:32:00.033Z,97321.16
2023-04-22T02:34:30.260Z,97327.97
2023-04-22T02:36:58.485Z,97326.41
2023-04-22T02:39:26.957Z,97328.94
2023-04-22T02:41:55.790Z,97328.19
2023-04-22T02:44:24.262Z,97332.72
2023-04-22T02:46:52.697Z,97316.88
2023-04-22T02:49:20.962Z,97320.16
2023-04-22T02:51:51.044Z,97334.22
2023-04-22T02:54:19.454Z,97326.72
2023-04-22T02:56:47.837Z,97323.25
2023-04-22T02:59:16.151Z,97323.59
2023-04-22T03:01:44.401Z,97322.94
2023-04-22T03:04:22.107Z,97321.13
2023-04-22T03:06:52.097Z,97326.09
2023-04-22T03:09:20.443Z,97330.44
2023-04-22T03:11:48.811Z,97329.63
2023-04-22T03:14:17.893Z,97323.06
2023-04-22T03:16:46.217Z,97327.13
2023-04-22T03:19:16.570Z,97330.72
2023-04-22T03:21:44.900Z,97329.63
2023-04-22T03:24:14.770Z,97317.13
2023-04-22T03:26:48.973Z,97326.38
2023-04-22T03:29:17.525Z,97316.16
2023-04-22T03:31:46.051Z,97324.94
2023-04-22T03:34:14.484Z,97330.03
2023-04-22T03:36:44.114Z,97309.69
2023-04-22T03:39:12.499Z,97324.75
2023-04-22T03:41:43.611Z,97330.84
2023-04-22T03:44:12.336Z,97320.47
2023-04-22T03:46:40.654Z,97327.50
2023-04-22T03:49:17.240Z,97320.75
2023-04-22T03:51:46.142Z,97328.41
2023-04-22T03:54:19.153Z,97333.66
2023-04-22T03:56:53.055Z,97317.22
2023-04-22T03:59:23.158Z,97326.97
2023-04-22T04:01:53.949Z,97321.44
2023-04-22T04:04:29.719Z,97326.69
2023-04-22T04:07:02.407Z,97326.00
2023-04-22T04:09:31.053Z,97329.53
2023-04-22T04:12:01.310Z,97322.63
2023-04-22T04:14:33.470Z,97325.34
2023-04-22T04:17:03.788Z,97333.75
2023-04-22T04:19:35.103Z,97339.91
2023-04-22T04:22:04.163Z,97339.66
2023-04-22T04:24:42.451Z,97338.47
2023-04-22T04:27:19.546Z,97342.78
2023-04-22T04:29:53.546Z,97346.22
2023-04-22T04:32:35.876Z,97343.44
2023-04-22T04:35:08.986Z,97342.59
2023-04-22T04:37:40.447Z,97342.25
2023-04-22T04:40:12.441Z,97346.25
2023-04-22T04:43:08.482Z,97337.50
2023-04-22T04:45:54.282Z,97358.66
2023-04-22T04:48:29.292Z,97346.44
2023-04-22T04:51:08.070Z,97359.22
2023-04-22T04:53:41.833Z,97357.81
2023-04-22T04:56:10.375Z,97365.28
2023-04-22T04:58:40.496Z,97364.78
2023-04-22T05:01:17.758Z,97364.34
2023-04-22T05:03:47.901Z,97364.84
2023-04-22T05:06:18.825Z,97367.94
2023-04-22T05:09:01.819Z,97350.22
2023-04-22T05:11:30.819Z,97365.38
2023-04-22T05:14:02.593Z,97364.78
2023-04-22T05:16:38.335Z,97366.78
2023-04-22T05:19:06.795Z,97363.03
2023-04-22T05:21:36.257Z,97367.31
2023-04-22T05:24:05.719Z,97366.69
2023-04-22T05:26:34.049Z,97361.75
2023-04-22T05:29:07.235Z,97355.31
2023-04-22T05:31:35.997Z,97359.94
2023-04-22T05:34:04.385Z,97353.19
2023-04-22T05:36:33.567Z,97359.91
2023-04-22T05:39:02.096Z,97361.03
2023-04-22T05:41:32.120Z,97356.63
2023-04-22T05:44:00.901Z,97351.97
2023-04-22T05:46:32.457Z,97370.22
2023-04-22T05:49:01.179Z,97367.81
2023-04-22T05:51:48.261Z,97364.59
2023-04-22T05:54:19.705Z,97359.31
2023-04-22T05:56:48.114Z,97358.34
2023-04-22T05:59:19.503Z,97360.66
2023-04-22T06:01:50.468Z,97366.50
2023-04-22T06:04:21.697Z,97363.91
2023-04-22T06:06:53.875Z,97363.84
2023-04-22T06:09:22.601Z,97352.50
2023-04-22T06:11:51.329Z,97358.72
2023-04-22T06:14:19.948Z,97362.31
2023-04-22T06:16:52.962Z,97360.75
2023-04-22T06:19:22.091Z,97353.63
2023-04-22T06:21:50.706Z,97368.47
2023-04-22T06:24:23.756Z,97347.94
2023-04-22T06:26:52.625Z,97352.56
2023-04-22T06:29:21.508Z,97361.19
2023-04-22T06:31:51.662Z,97357.78
2023-04-22T06:34:22.883Z,97366.28
2023-04-22T06:36:53.553Z,97371.81
2023-04-22T06:39:22.932Z,97377.25
2023-04-22T06:42:09.243Z,97360.41
2023-04-22T06:45:00.246Z,97366.38
2023-04-22T06:47:50.021Z,97367.25
2023-04-22T06:50:23.695Z,97367.47
2023-04-22T06:52:59.366Z,97368.88
2023-04-22T06:55:27.877Z,97368.41
2023-04-22T06:57:56.336Z,97367.69
2023-04-22T07:00:25.760Z,97376.94
2023-04-22T07:02:55.895Z,97365.00
2023-04-22T07:05:24.680Z,97367.75
2023-04-22T07:07:53.523Z,97366.81
2023-04-22T07:10:24.790Z,97360.28
2023-04-22T07:13:11.982Z,97353.94
2023-04-22T07:15:40.626Z,97354.78
2023-04-22T07:18:10.373Z,97352.63
2023-04-22T07:20:38.729Z,97351.72
2023-04-22T07:23:07.269Z,97344.56
2023-04-22T07:25:35.858Z,97355.28
2023-04-22T07:28:06.956Z,97347.47
2023-04-22T07:30:35.579Z,97346.16
2023-04-22T07:33:04.006Z,97344.94
2023-04-22T07:35:34.069Z,97342.25
2023-04-22T07:38:02.470Z,97343.66
2023-04-22T07:40:30.781Z,97343.31
2023-04-22T07:42:59.612Z,97331.25
2023-04-22T07:45:28.197Z,97341.09
2023-04-22T07:47:56.922Z,97335.22
2023-04-22T07:50:25.454Z,97332.84
2023-04-22T07:52:55.315Z,97314.41
2023-04-22T07:55:23.687Z,97320.66
2023-04-22T07:57:51.985Z,97320.19
2023-04-22T08:00:20.233Z,97329.28
2023-04-22T08:02:48.956Z,97330.66
2023-04-22T08:05:17.589Z,97335.97
2023-04-22T08:07:46.532Z,97327.78
2023-04-22T08:10:16.420Z,97329.47
2023-04-22T08:12:45.104Z,97318.13
2023-04-22T08:15:13.849Z,97327.41
2023-04-22T08:17:42.173Z,97323.66
2023-04-22T08:20:11.639Z,97324.69
2023-04-22T08:22:40.445Z,97327.69
2023-04-22T08:25:09.949Z,97314.09
2023-04-22T08:27:40.332Z,97312.97
2023-04-22T08:30:09.628Z,97318.03
2023-04-22T08:32:38.750Z,97314.88
2023-04-22T08:35:07.521Z,97314.00
2023-04-22T08:37:36.573Z,97316.78
2023-04-22T08:40:06.039Z,97311.59
2023-04-22T08:42:34.852Z,97307.47
2023-04-22T08:45:06.101Z,97310.00
2023-04-22T08:47:36.117Z,97298.44
2023-04-22T08:50:06.502Z,97308.00
2023-04-22T08:52:35.130Z,97295.16
2023-04-22T08:55:03.971Z,97295.34
2023-04-22T08:57:33.633Z,97299.31
2023-04-22T09:00:02.221Z,97290.81
2023-04-22T09:02:34.104Z,97291.78
2023-04-22T09:05:04.302Z,97297.16
2023-04-22T09:07:33.898Z,97302.66
2023-04-22T09:10:02.169Z,97294.34
2023-04-22T09:12:30.614Z,97297.41
2023-04-22T09:14:58.956Z,97292.34
2023-04-22T09:17:39.462Z,97294.97
2023-04-22T09:20:09.872Z,97298.28
2023-04-22T09:22:43.445Z,97284.13
2023-04-22T09:25:17.957Z,97287.44
2023-04-22T09:27:50.617Z,97284.56
2023-04-22T09:30:20.504Z,97290.06
2023-04-22T09:32:58.060Z,97272.19
2023-04-22T09:35:31.249Z,97282.91
2023-04-22T09:38:01.288Z,97266.75
2023-04-22T09:40:31.667Z,97276.63
2023-04-22T09:43:02.016Z,97269.75
2023-04-22T09:45:32.234Z,97261.88
2023-04-22T09:48:09.460Z,97269.28
2023-04-22T09:50:38.738Z,97270.69
2023-04-22T09:53:08.969Z,97257.81
2023-04-22T09:55:40.022Z,97250.63
2023-04-22T09:58:10.314Z,97250.53
2023-04-22T10:00:42.649Z,97248.22
2023-04-22T10:03:13.046Z,97236.25
2023-04-22T10:05:42.443Z,97235.13
2023-04-22T10:08:11.809Z,97244.47
2023-04-22T10:10:41.286Z,97231.88
2023-04-22T10:13:10.695Z,97231.50
2023-04-22T10:15:42.565Z,97223.72
2023-04-22T10:18:18.004Z,97223.91
2023-04-22T10:20:47.887Z,97228.97
2023-04-22T10:23:19.747Z,97223.94
2023-04-22T10:25:51.580Z,97230.91
2023-04-22T10:28:22.162Z,97225.91
2023-04-22T10:30:51.787Z,97220.38
2023-04-22T10:33:40.884Z,97213.81
2023-04-22T10:36:11.777Z,97215.94
2023-04-22T10:38:42.362Z,97214.69
2023-04-22T10:41:15.725Z,97215.69
2023-04-22T10:43:45.727Z,97211.53
2023-04-22T10:46:52.473Z,97212.91
2023-04-22T10:49:24.345Z,97211.03
2023-04-22T10:51:54.447Z,97219.53
2023-04-22T10:54:58.204Z,97203.78
2023-04-22T10:57:36.457Z,97201.88
2023-04-22T11:00:25.785Z,97199.19
2023-04-22T11:02:56.438Z,97198.66
2023-04-22T11:05:28.867Z,97195.16
2023-04-22T11:08:03.411Z,97203.03
2023-04-22T11:10:44.085Z,97206.94
2023-04-22T11:13:15.382Z,97205.59
2023-04-22T11:15:45.877Z,97192.66
2023-04-22T11:18:21.464Z,97187.56
2023-04-22T11:20:53.643Z,97195.63
2023-04-22T11:23:25.330Z,97192.75
2023-04-22T11:25:58.941Z,97197.16
2023-04-22T11:28:27.794Z,97187.50
2023-04-22T11:31:03.485Z,97179.53
2023-04-22T11:33:34.168Z,97188.69
2023-04-22T11:36:03.929Z,97178.25
2023-04-22T11:38:33.242Z,97171.41
2023-04-22T11:41:01.529Z,97182.50
2023-04-22T11:43:29.844Z,97177.59
2023-04-22T11:45:59.282Z,97168.44
2023-04-22T11:48:27.821Z,97175.50
2023-04-22T11:51:11.959Z,97171.34
2023-04-22T11:53:41.470Z,97176.06
2023-04-22T11:56:09.948Z,97172.84
2023-04-22T11:58:41.838Z,97167.38
2023-04-22T12:01:14.202Z,97166.41
2023-04-22T12:03:42.935Z,97165.19
2023-04-22T12:06:12.861Z,97170.16
2023-04-22T12:08:44.434Z,97159.75
2023-04-22T12:11:14.213Z,97161.91
2023-04-22T12:13:45.711Z,97166.50
2023-04-22T12:16:16.665Z,97161.03
2023-04-22T12:18:50.934Z,97153.66
2023-04-22T12:21:21.936Z,97148.47
2023-04-22T12:23:52.574Z,97153.31
2023-04-22T12:26:26.622Z,97136.75
2023-04-22T12:28:58.135Z,97149.94
2023-04-22T12:31:26.960Z,97143.16
2023-04-22T12:33:55.838Z,97145.06
2023-04-22T12:36:26.411Z,97136.13
2023-04-22T12:38:54.710Z,97131.09
2023-04-22T12:41:23.834Z,97130.88
2023-04-22T12:43:52.872Z,97135.81
2023-04-22T12:46:21.451Z,97140.09
2023-04-22T12:48:49.876Z,97132.66
2023-04-22T12:51:18.320Z,97133.69
2023-04-22T12:53:48.106Z,97133.13
2023-04-22T12:56:16.863Z,97120.38
2023-04-22T12:58:45.179Z,97125.19
2023-04-22T13:01:13.479Z,97124.38
2023-04-22T13:03:42.037Z,97121.28
2023-04-22T13:06:10.832Z,97125.31
2023-04-22T13:08:39.264Z,97117.94
2023-04-22T13:11:12.074Z,97113.19
2023-04-22T13:13:40.602Z,97098.66
2023-04-22T13:16:09.195Z,97103.88
2023-04-22T13:18:37.967Z,97098.47
2023-04-22T13:21:07.442Z,97098.41
2023-04-22T13:23:35.822Z,97092.16
2023-04-22T13:26:04.294Z,97086.63
2023-04-22T13:28:34.261Z,97079.59
2023-04-22T13:31:02.981Z,97087.69
2023-04-22T13:33:32.555Z,97084.41
2023-04-22T13:36:00.865Z,97082.00
2023-04-22T13:38:29.313Z,97076.00
2023-04-22T13:40:58.033Z,97070.50
2023-04-22T13:43:26.405Z,97064.97
2023-04-22T13:45:56.573Z,97057.84
2023-04-22T13:48:25.591Z,97080.22
2023-04-22T13:50:54.300Z,97063.38
2023-04-22T13:53:23.160Z,97056.56
2023-04-22T13:55:51.483Z,97067.28
2023-04-22T13:58:19.933Z,97053.16
2023-04-22T14:00:50.680Z,97062.16
2023-04-22T14:03:20.842Z,97051.50
2023-04-22T14:05:49.295Z,97062.38
2023-04-22T14:08:17.980Z,97050.56
2023-04-22T14:10:46.326Z,97051.41
2023-04-22T14:13:14.864Z,97058.34
2023-04-22T14:15:45.336Z,97057.31
2023-04-22T14:18:13.975Z,97054.38
2023-04-22T14:20:45.310Z,97058.16
2023-04-22T14:23:13.568Z,97041.78
2023-04-22T14:25:41.924Z,97054.41
2023-04-22T14:28:10.434Z,97047.00
2023-04-22T14:30:38.955Z,97046.13
2023-04-22T14:33:07.964Z,97044.50
2023-04-22T14:35:36.789Z,97028.47
2023-04-22T14:38:08.431Z,97039.81
2023-04-22T14:40:37.265Z,97030.41
2023-04-22T14:43:07.763Z,97038.41
2023-04-22T14:45:36.233Z,97030.88
2023-04-22T14:48:04.859Z,97020.56
2023-04-22T14:50:34.190Z,97026.16
2023-04-22T14:53:02.602Z,97021.81
2023-04-22T14:55:32.759Z,97025.59
2023-04-22T14:58:01.089Z,97027.75
2023-04-22T15:00:29.785Z,97021.13
2023-04-22T15:02:58.374Z,97022.53
2023-04-22T15:05:26.883Z,97028.88
2023-04-22T15:07:55.499Z,97038.53
2023-04-22T15:10:24.015Z,97034.25
2023-04-22T15:12:53.590Z,97024.72
2023-04-22T15:15:21.930Z,97031.22
2023-04-22T15:17:50.291Z,97028.03
2023-04-22T15:20:18.735Z,97030.94
2023-04-22T15:22:47.610Z,97031.09
2023-04-22T15:25:18.018Z,97032.59
2023-04-22T15:27:46.706Z,97026.19
2023-04-22T15:30:16.803Z,97025.47
2023-04-22T15:32:45.345Z,97023.81
2023-04-22T15:35:14.302Z,97021.50
2023-04-22T15:37:42.822Z,97018.72
2023-04-22T15:40:11.800Z,97024.16
2023-04-22T15:42:40.088Z,97011.13
2023-04-22T15:45:09.562Z,97021.78
2023-04-22T15:47:41.887Z,97015.22
2023-04-22T15:50:11.859Z,97025.34
2023-04-22T15:52:40.718Z,97028.03
2023-04-22T15:55:09.643Z,97025.00
2023-04-22T15:57:38.039Z,97023.81
2023-04-22T16:00:12.410Z,97030.09
2023-04-22T16:02:46.648Z,97030.81
2023-04-22T16:05:15.196Z,97019.38
2023-04-22T16:07:43.607Z,97028.31
2023-04-22T16:10:12.875Z,97035.38
2023-04-22T16:12:41.337Z,97030.69
2023-04-22T16:15:11.763Z,97032.91
2023-04-22T16:17:40.326Z,97023.63
2023-04-22T16:20:12.014Z,97020.13
2023-04-22T16:22:40.548Z,97029.22
2023-04-22T16:25:10.723Z,97028.66
2023-04-22T16:27:39.145Z,97015.03
2023-04-22T16:30:08.516Z,97019.75
2023-04-22T16:32:37.448Z,97011.34
2023-04-22T16:35:06.619Z,97016.22
2023-04-22T16:37:36.945Z,97017.09
2023-04-22T16:40:06.517Z,97020.59
2023-04-22T16:42:35.193Z,97021.59
2023-04-22T16:45:03.481Z,97019.41
2023-04-22T16:47:32.042Z,97030.81
2023-04-22T16:50:00.816Z,97027.06
2023-04-22T16:52:29.875Z,97023.03
2023-04-22T16:55:00.525Z,97009.72
2023-04-22T16:57:28.967Z,97021.13
2023-04-22T16:59:57.532Z,97025.81
2023-04-22T17:02:26.137Z,97022.75
2023-04-22T17:04:54.936Z,97022.41
2023-04-22T17:07:23.784Z,97014.44
2023-04-22T17:09:52.159Z,97024.13
2023-04-22T17:12:21.938Z,97026.75
2023-04-22T17:14:59.470Z,97022.84
2023-04-22T17:17:29.809Z,97024.16
2023-04-22T17:19:58.785Z,97019.59
2023-04-22T17:22:27.365Z,97013.16
2023-04-22T17:24:56.868Z,97021.84
2023-04-22T17:27:26.806Z,97017.66
2023-04-22T17:29:55.092Z,97007.34
2023-04-22T17:32:23.610Z,97024.06
2023-04-22T17:34:52.549Z,97019.59
2023-04-22T17:37:20.990Z,97028.22
2023-04-22T17:39:49.364Z,97026.81
2023-04-22T17:42:18.086Z,97008.72
2023-04-22T17:44:48.151Z,97029.09
2023-04-22T17:47:16.893Z,97027.91
2023-04-22T17:49:45.368Z,97025.66
2023-04-22T17:52:14.142Z,97028.00
2023-04-22T17:54:45.230Z,97029.22
2023-04-22T17:57:13.706Z,97023.50
2023-04-22T17:59:42.248Z,97028.50
2023-04-22T18:02:13.634Z,97042.75
2023-04-22T18:04:41.998Z,97019.72
2023-04-22T18:07:10.489Z,97048.03
2023-04-22T18:09:39.551Z,97042.69
2023-04-22T18:12:08.403Z,97047.63
2023-04-22T18:14:37.018Z,97047.38
2023-04-22T18:17:08.803Z,97045.13
2023-04-22T18:19:40.985Z,97049.19
2023-04-22T18:22:14.299Z,97057.34
2023-04-22T18:24:43.407Z,97061.81
2023-04-22T18:27:12.081Z,97068.81
2023-04-22T18:29:40.853Z,97063.00
2023-04-22T18:32:10.082Z,97059.31
2023-04-22T18:34:42.790Z,97072.63
2023-04-22T18:37:11.498Z,97072.31
2023-04-22T18:39:40.428Z,97070.00
2023-04-22T18:42:12.158Z,97075.28
2023-04-22T18:44:41.217Z,97085.53
2023-04-22T18:47:10.513Z,97077.41
2023-04-22T18:49:39.184Z,97080.97
2023-04-22T18:52:09.137Z,97078.34
2023-04-22T18:54:41.185Z,97094.75
2023-04-22T18:57:10.239Z,97078.09
2023-04-22T18:59:38.832Z,97097.38
2023-04-22T19:02:07.906Z,97087.50
2023-04-22T19:04:37.032Z,97099.13
2023-04-22T19:07:06.193Z,97088.53
2023-04-22T19:09:35.996Z,97100.63
2023-04-22T19:12:04.629Z,97100.16
2023-04-22T19:14:33.241Z,97105.03
2023-04-22T19:17:01.752Z,97100.91
2023-04-22T19:19:30.056Z,97104.19
2023-04-22T19:21:58.523Z,97107.00
2023-04-22T19:24:32.135Z,97112.09
2023-04-22T19:27:03.225Z,97114.41
2023-04-22T19:29:31.913Z,97124.44
2023-04-22T19:32:04.053Z,97108.97
2023-04-22T19:34:33.145Z,97120.34
2023-04-22T19:37:03.425Z,97124.19
2023-04-22T19:39:32.507Z,97117.66
2023-04-22T19:42:03.360Z,97114.63
2023-04-22T19:44:32.062Z,97120.78
2023-04-22T19:47:01.771Z,97125.41
2023-04-22T19:49:32.384Z,97100.13
2023-04-22T19:52:03.663Z,97126.59
2023-04-22T19:54:35.066Z,97114.72
2023-04-22T19:57:06.754Z,97118.09
2023-04-22T19:59:35.922Z,97116.16
2023-04-22T20:02:04.724Z,97120.00
2023-04-22T20:04:34.086Z,97114.44
2023-04-22T20:07:04.934Z,97114.91
2023-04-22T20:09:34.261Z,97122.28
2023-04-22T20:12:05.132Z,97126.97
2023-04-22T20:14:34.204Z,97124.03
2023-04-22T20:17:04.302Z,97126.19
2023-04-22T20:19:33.550Z,97119.66
2023-04-22T20:22:02.939Z,97124.22
2023-04-22T20:24:36.158Z,97120.34
2023-04-22T20:27:06.720Z,97126.09
2023-04-22T20:29:38.483Z,97123.66
2023-04-22T20:32:07.607Z,97123.91
2023-04-22T20:34:36.379Z,97126.16
2023-04-22T20:37:10.040Z,97135.28
2023-04-22T20:39:39.445Z,97123.53
2023-04-22T20:42:10.899Z,97118.31
2023-04-22T20:44:39.761Z,97120.88
2023-04-22T20:47:08.166Z,97125.66
2023-04-22T20:49:40.521Z,97120.56
2023-04-22T20:52:09.312Z,97126.84
2023-04-22T20:54:37.740Z,97121.97
2023-04-22T20:57:07.410Z,97125.84
2023-04-22T20:59:37.537Z,97118.31
2023-04-22T21:02:06.730Z,97123.09
2023-04-22T21:04:36.418Z,97127.88
2023-04-22T21:07:07.409Z,97127.38
2023-04-22T21:09:36.221Z,97130.69
2023-04-22T21:12:05.005Z,97129.31
2023-04-22T21:14:33.945Z,97137.38
2023-04-22T21:17:05.978Z,97135.16
2023-04-22T21:19:35.393Z,97133.56
2023-04-22T21:22:06.437Z,97143.75
2023-04-22T21:24:35.688Z,97128.38
2023-04-22T21:27:04.322Z,97147.78
2023-04-22T21:29:33.260Z,97149.06
2023-04-22T21:32:09.373Z,97155.63
2023-04-22T21:34:39.866Z,97149.47
2023-04-22T21:37:08.968Z,97154.34
2023-04-22T21:39:37.553Z,97153.31
2023-04-22T21:42:08.794Z,97148.44
2023-04-22T21:44:38.387Z,97151.59
2023-04-22T21:47:07.187Z,97143.22
2023-04-22T21:49:35.836Z,97143.53
2023-04-22T21:52:05.650Z,97153.41
2023-04-22T21:54:33.772Z,97154.53
2023-04-22T21:57:02.563Z,97149.25
2023-04-22T21:59:31.833Z,97147.78
2023-04-22T22:02:00.441Z,97155.91
2023-04-22T22:04:28.737Z,97162.16
2023-04-22T22:06:57.196Z,97143.94
2023-04-22T22:09:27.134Z,97147.69
2023-04-22T22:11:55.598Z,97140.72
2023-04-22T22:14:23.943Z,97134.78
2023-04-22T22:16:53.744Z,97140.25
2023-04-22T22:19:22.428Z,97134.25
2023-04-22T22:21:50.642Z,97139.81
2023-04-22T22:24:19.211Z,97140.69
2023-04-22T22:26:48.995Z,97138.97
2023-04-22T22:29:17.214Z,97136.34
2023-04-22T22:31:46.469Z,97132.66
2023-04-22T22:34:15.027Z,97143.44
2023-04-22T22:36:43.136Z,97134.00
2023-04-22T22:39:14.462Z,97133.16
2023-04-22T22:41:43.958Z,97134.50
2023-04-22T22:44:13.749Z,97139.19
2023-04-22T22:46:42.028Z,97146.13
2023-04-22T22:49:10.856Z,97133.97
2023-04-22T22:51:38.951Z,97134.25
2023-04-22T22:54:07.377Z,97134.59
2023-04-22T22:56:35.823Z,97134.03
2023-04-22T22:59:04.481Z,97133.28
2023-04-22T23:01:34.178Z,97134.41
2023-04-22T23:04:02.481Z,97137.38
2023-04-22T23:06:31.964Z,97134.19
2023-04-22T23:09:00.108Z,97134.38
2023-04-22T23:11:28.222Z,97130.16
2023-04-22T23:13:56.413Z,97132.22
2023-04-22T23:16:24.801Z,97131.47
2023-04-22T23:18:56.139Z,97134.72
2023-04-22T23:21:25.000Z,97146.16
2023-04-22T23:23:53.973Z,97138.59
2023-04-22T23:26:22.613Z,97136.16
2023-04-22T23:28:51.206Z,97131.16
2023-04-22T23:31:20.534Z,97127.78
2023-04-22T23:33:51.396Z,97125.31
2023-04-22T23:36:22.725Z,97122.13
2023-04-22T23:38:51.054Z,97130.31
2023-04-22T23:41:19.895Z,97120.81
2023-04-22T23:43:48.602Z,97112.34
2023-04-22T23:46:18.507Z,97110.63
2023-04-22T23:48:47.395Z,97117.13
2023-04-22T23:51:16.377Z,97107.63
2023-04-22T23:53:46.735Z,97108.47
2023-04-22T23:56:20.263Z,97104.59
2023-04-22T23:58:49.149Z,97103.19
